createdAt,value
2023-02-26T00:01:51.972Z,8.14
2023-02-26T00:04:20.469Z,8.15
2023-02-26T00:06:58.781Z,8.15
2023-02-26T00:09:48.564Z,8.14
2023-02-26T00:12:17.585Z,8.13
2023-02-26T00:14:46.520Z,8.12
2023-02-26T00:17:31.091Z,8.12
2023-02-26T00:20:00.341Z,8.12
2023-02-26T00:22:28.916Z,8.11
2023-02-26T00:24:58.717Z,8.11
2023-02-26T00:27:27.103Z,8.10
2023-02-26T00:29:55.629Z,8.09
2023-02-26T00:32:24.841Z,8.08
2023-02-26T00:34:54.531Z,8.08
2023-02-26T00:37:45.180Z,8.09
2023-02-26T00:41:01.690Z,8.08
2023-02-26T00:43:30.509Z,8.07
2023-02-26T00:46:46.796Z,8.07
2023-02-26T00:49:32.143Z,8.06
2023-02-26T00:52:05.383Z,8.05
2023-02-26T00:54:33.931Z,8.04
2023-02-26T00:57:04.462Z,8.04
2023-02-26T00:59:32.883Z,8.04
2023-02-26T01:02:03.474Z,8.04
2023-02-26T01:04:33.042Z,8.04
2023-02-26T01:07:01.357Z,8.05
2023-02-26T01:09:36.018Z,8.05
2023-02-26T01:12:08.488Z,8.05
2023-02-26T01:14:37.545Z,8.05
2023-02-26T01:17:35.375Z,8.04
2023-02-26T01:20:19.715Z,8.03
2023-02-26T01:22:55.769Z,8.02
2023-02-26T01:25:29.442Z,8.02
2023-02-26T01:27:58.198Z,8.02
2023-02-26T01:30:27.124Z,8.01
2023-02-26T01:33:13.671Z,8.01
2023-02-26T01:35:49.095Z,7.99
2023-02-26T01:38:36.397Z,7.98
2023-02-26T01:41:30.170Z,7.97
2023-02-26T01:44:24.602Z,7.95
2023-02-26T01:47:17.725Z,7.94
2023-02-26T01:49:46.178Z,7.93
2023-02-26T01:52:35.628Z,7.91
2023-02-26T01:55:06.087Z,7.89
2023-02-26T01:57:35.846Z,7.88
2023-02-26T02:00:05.732Z,7.87
2023-02-26T02:02:40.615Z,7.86
2023-02-26T02:05:22.458Z,7.86
2023-02-26T02:07:50.941Z,7.85
2023-02-26T02:10:19.939Z,7.84
2023-02-26T02:13:16.162Z,7.83
2023-02-26T02:16:12.884Z,7.82
2023-02-26T02:19:10.854Z,7.81
2023-02-26T02:21:48.509Z,7.80
2023-02-26T02:24:56.083Z,7.80
2023-02-26T02:27:47.021Z,7.79
2023-02-26T02:30:53.182Z,7.80
2023-02-26T02:33:27.141Z,7.80
2023-02-26T02:36:01.746Z,7.79
2023-02-26T02:38:43.144Z,7.78
2023-02-26T02:41:20.867Z,7.77
2023-02-26T02:43:50.704Z,7.76
2023-02-26T02:46:25.266Z,7.75
2023-02-26T02:49:05.101Z,7.75
2023-02-26T02:51:48.078Z,7.74
2023-02-26T02:54:22.670Z,7.74
2023-02-26T02:56:59.068Z,7.74
2023-02-26T02:59:30.337Z,7.72
2023-02-26T03:02:19.554Z,7.71
2023-02-26T03:04:48.719Z,7.71
2023-02-26T03:07:17.341Z,7.69
2023-02-26T03:09:46.427Z,7.69
2023-02-26T03:12:15.841Z,7.69
2023-02-26T03:14:45.593Z,7.68
2023-02-26T03:17:34.183Z,7.69
2023-02-26T03:20:17.209Z,7.68
2023-02-26T03:23:19.564Z,7.67
2023-02-26T03:25:56.966Z,7.69
2023-02-26T03:28:31.010Z,7.67
2023-02-26T03:31:21.880Z,7.67
2023-02-26T03:34:16.051Z,7.65
2023-02-26T03:36:56.100Z,7.64
2023-02-26T03:39:31.892Z,7.62
2023-02-26T03:42:10.067Z,7.63
2023-02-26T03:44:57.602Z,7.62
2023-02-26T03:47:30.304Z,7.63
2023-02-26T03:50:05.010Z,7.62
2023-02-26T03:52:40.051Z,7.60
2023-02-26T03:55:28.735Z,7.61
2023-02-26T03:58:22.462Z,7.60
2023-02-26T04:01:25.196Z,7.59
2023-02-26T04:04:02.334Z,7.59
2023-02-26T04:06:31.472Z,7.58
2023-02-26T04:09:01.773Z,7.57
2023-02-26T04:11:31.866Z,7.57
2023-02-26T04:14:01.184Z,7.56
2023-02-26T04:16:31.359Z,7.55
2023-02-26T04:18:59.743Z,7.55
2023-02-26T04:21:28.650Z,7.55
2023-02-26T04:23:57.048Z,7.56
2023-02-26T04:26:25.689Z,7.56
2023-02-26T04:28:54.808Z,7.56
2023-02-26T04:31:23.338Z,7.56
2023-02-26T04:33:52.048Z,7.56
2023-02-26T04:36:20.492Z,7.55
2023-02-26T04:38:49.885Z,7.54
2023-02-26T04:41:18.612Z,7.54
2023-02-26T04:43:48.173Z,7.54
2023-02-26T04:46:23.108Z,7.54
2023-02-26T04:48:52.345Z,7.54
2023-02-26T04:51:22.311Z,7.53
2023-02-26T04:53:52.163Z,7.53
2023-02-26T04:56:21.151Z,7.53
2023-02-26T04:58:50.317Z,7.53
2023-02-26T05:01:24.343Z,7.52
2023-02-26T05:03:53.029Z,7.51
2023-02-26T05:06:22.794Z,7.50
2023-02-26T05:08:51.836Z,7.50
2023-02-26T05:11:20.486Z,7.51
2023-02-26T05:13:49.286Z,7.51
2023-02-26T05:16:19.103Z,7.50
2023-02-26T05:18:49.547Z,7.49
2023-02-26T05:21:19.463Z,7.50
2023-02-26T05:23:48.778Z,7.52
2023-02-26T05:26:18.800Z,7.51
2023-02-26T05:28:47.306Z,7.50
2023-02-26T05:31:16.724Z,7.50
2023-02-26T05:33:45.104Z,7.50
2023-02-26T05:36:14.556Z,7.49
2023-02-26T05:38:42.700Z,7.48
2023-02-26T05:41:11.247Z,7.47
2023-02-26T05:43:40.558Z,7.47
2023-02-26T05:46:09.181Z,7.47
2023-02-26T05:48:38.780Z,7.47
2023-02-26T05:51:07.118Z,7.47
2023-02-26T05:53:35.833Z,7.46
2023-02-26T05:56:05.931Z,7.46
2023-02-26T05:58:34.317Z,7.46
2023-02-26T06:01:02.870Z,7.46
2023-02-26T06:03:31.361Z,7.45
2023-02-26T06:06:00.992Z,7.45
2023-02-26T06:08:29.257Z,7.45
2023-02-26T06:10:57.496Z,7.45
2023-02-26T06:13:25.733Z,7.46
2023-02-26T06:15:54.160Z,7.45
2023-02-26T06:18:22.596Z,7.45
2023-02-26T06:20:50.910Z,7.45
2023-02-26T06:23:19.541Z,7.44
2023-02-26T06:25:47.813Z,7.42
2023-02-26T06:28:16.155Z,7.42
2023-02-26T06:30:44.691Z,7.42
2023-02-26T06:33:13.616Z,7.42
2023-02-26T06:35:42.814Z,7.42
2023-02-26T06:38:11.965Z,7.42
2023-02-26T06:40:40.487Z,7.41
2023-02-26T06:43:09.511Z,7.41
2023-02-26T06:45:37.916Z,7.40
2023-02-26T06:48:06.813Z,7.40
2023-02-26T06:50:35.753Z,7.39
2023-02-26T06:53:04.638Z,7.38
2023-02-26T06:55:33.090Z,7.38
2023-02-26T06:58:02.806Z,7.38
2023-02-26T07:00:30.994Z,7.38
2023-02-26T07:02:59.612Z,7.38
2023-02-26T07:05:28.635Z,7.36
2023-02-26T07:07:58.108Z,7.36
2023-02-26T07:10:27.307Z,7.36
2023-02-26T07:12:55.900Z,7.36
2023-02-26T07:15:24.182Z,7.35
2023-02-26T07:17:52.748Z,7.35
2023-02-26T07:20:21.127Z,7.35
2023-02-26T07:22:49.713Z,7.35
2023-02-26T07:25:17.982Z,7.36
2023-02-26T07:27:47.876Z,7.37
2023-02-26T07:30:16.600Z,7.38
2023-02-26T07:32:44.892Z,7.38
2023-02-26T07:35:13.778Z,7.37
2023-02-26T07:37:42.168Z,7.37
2023-02-26T07:40:11.524Z,7.37
2023-02-26T07:42:40.544Z,7.37
2023-02-26T07:45:09.205Z,7.36
2023-02-26T07:47:38.126Z,7.37
2023-02-26T07:50:07.566Z,7.36
2023-02-26T07:52:35.937Z,7.36
2023-02-26T07:55:05.421Z,7.37
2023-02-26T07:57:34.037Z,7.37
2023-02-26T08:00:02.772Z,7.35
2023-02-26T08:02:41.145Z,7.34
2023-02-26T08:05:09.980Z,7.33
2023-02-26T08:07:38.457Z,7.34
2023-02-26T08:10:07.156Z,7.35
2023-02-26T08:12:36.892Z,7.35
2023-02-26T08:15:06.320Z,7.35
2023-02-26T08:17:35.391Z,7.36
2023-02-26T08:20:05.301Z,7.36
2023-02-26T08:22:35.285Z,7.37
2023-02-26T08:25:04.887Z,7.37
2023-02-26T08:27:33.476Z,7.38
2023-02-26T08:42:04.034Z,7.68
2023-02-26T08:44:34.159Z,7.71
2023-02-26T08:47:04.349Z,7.70
2023-02-26T08:49:33.059Z,7.67
2023-02-26T08:52:01.105Z,7.64
2023-02-26T08:54:29.359Z,7.61
2023-02-26T08:56:58.505Z,7.59
2023-02-26T08:59:26.849Z,7.56
2023-02-26T09:01:55.603Z,7.53
2023-02-26T09:04:24.557Z,7.52
2023-02-26T09:06:53.730Z,7.50
2023-02-26T09:09:23.671Z,7.50
2023-02-26T09:11:51.951Z,7.49
2023-02-26T09:14:20.890Z,7.47
2023-02-26T09:16:51.613Z,7.48
2023-02-26T09:19:21.688Z,7.48
2023-02-26T09:21:50.332Z,7.49
2023-02-26T09:24:19.997Z,7.49
2023-02-26T09:26:49.423Z,7.49
2023-02-26T09:29:18.208Z,7.49
2023-02-26T09:31:47.259Z,7.49
2023-02-26T09:34:15.906Z,7.48
2023-02-26T09:36:46.693Z,7.46
2023-02-26T09:39:14.995Z,7.45
2023-02-26T09:41:50.799Z,7.44
2023-02-26T09:44:45.173Z,7.41
2023-02-26T09:47:23.979Z,7.40
2023-02-26T09:50:13.467Z,7.38
2023-02-26T09:53:23.247Z,7.37
2023-02-26T09:55:56.200Z,7.37
2023-02-26T09:58:40.109Z,7.42
2023-02-26T10:01:39.233Z,7.48
2023-02-26T10:04:29.207Z,7.54
2023-02-26T10:07:11.227Z,7.62
2023-02-26T10:09:58.879Z,7.69
2023-02-26T10:12:30.993Z,7.75
2023-02-26T10:15:27.849Z,7.81
2023-02-26T10:18:14.658Z,7.84
2023-02-26T10:21:13.516Z,7.85
2023-02-26T10:23:54.179Z,7.88
2023-02-26T10:26:41.508Z,7.90
2023-02-26T10:29:48.287Z,7.93
2023-02-26T10:32:37.390Z,7.96
2023-02-26T10:35:14.354Z,7.96
2023-02-26T10:37:55.695Z,7.95
2023-02-26T10:41:02.309Z,7.94
2023-02-26T10:43:54.014Z,7.92
2023-02-26T10:46:37.645Z,7.90
2023-02-26T10:49:21.445Z,7.88
2023-02-26T10:51:52.892Z,7.87
2023-02-26T10:54:36.110Z,7.86
2023-02-26T10:57:04.402Z,7.84
2023-02-26T10:59:33.139Z,7.84
2023-02-26T11:02:02.032Z,7.84
2023-02-26T11:04:30.480Z,7.83
2023-02-26T11:07:05.400Z,7.82
2023-02-26T11:09:46.079Z,7.80
2023-02-26T11:12:17.349Z,7.78
2023-02-26T11:14:48.761Z,7.78
2023-02-26T11:17:22.434Z,7.78
2023-02-26T11:19:57.020Z,7.77
2023-02-26T11:22:29.872Z,7.76
2023-02-26T11:24:59.267Z,7.75
2023-02-26T11:27:35.036Z,7.75
2023-02-26T11:30:20.501Z,7.74
2023-02-26T11:32:53.878Z,7.73
2023-02-26T11:35:29.778Z,7.72
2023-02-26T11:38:03.934Z,7.72
2023-02-26T11:40:41.120Z,7.71
2023-02-26T11:43:19.483Z,7.71
2023-02-26T11:45:55.263Z,7.71
2023-02-26T11:48:37.685Z,7.73
2023-02-26T11:51:09.723Z,7.77
2023-02-26T11:54:02.832Z,7.82
2023-02-26T11:56:41.918Z,7.83
2023-02-26T11:59:24.942Z,7.83
2023-02-26T12:01:54.506Z,7.84
2023-02-26T12:04:27.798Z,7.84
2023-02-26T12:06:56.894Z,7.85
2023-02-26T12:09:28.140Z,7.86
2023-02-26T12:11:59.844Z,7.86
2023-02-26T12:14:52.003Z,7.85
2023-02-26T12:17:30.413Z,7.85
2023-02-26T12:20:25.245Z,7.84
2023-02-26T12:22:57.034Z,7.83
2023-02-26T12:26:03.717Z,7.82
2023-02-26T12:28:57.076Z,7.80
2023-02-26T12:31:49.245Z,7.77
2023-02-26T12:35:09.497Z,7.75
2023-02-26T12:38:15.518Z,7.74
2023-02-26T12:40:51.272Z,7.72
2023-02-26T12:43:49.561Z,7.71
2023-02-26T12:46:38.063Z,7.69
2023-02-26T12:49:35.060Z,7.67
2023-02-26T12:52:29.785Z,7.65
2023-02-26T12:55:23.296Z,7.61
2023-02-26T12:58:13.421Z,7.61
2023-02-26T13:00:56.176Z,7.58
2023-02-26T13:03:24.841Z,7.57
2023-02-26T13:06:16.578Z,7.56
2023-02-26T13:09:31.300Z,7.55
2023-02-26T13:12:32.653Z,7.53
2023-02-26T13:15:46.774Z,7.53
2023-02-26T13:18:31.568Z,7.51
2023-02-26T13:21:13.875Z,7.51
2023-02-26T13:23:51.119Z,7.50
2023-02-26T13:26:21.468Z,7.49
2023-02-26T13:29:22.030Z,7.47
2023-02-26T13:31:57.640Z,7.45
2023-02-26T13:34:29.136Z,7.45
2023-02-26T13:36:58.411Z,7.46
2023-02-26T13:39:48.520Z,7.46
2023-02-26T13:42:32.162Z,7.46
2023-02-26T13:45:28.293Z,7.45
2023-02-26T13:48:28.181Z,7.45
2023-02-26T13:51:37.300Z,7.43
2023-02-26T13:54:15.672Z,7.41
2023-02-26T13:57:05.579Z,7.40
2023-02-26T13:59:47.783Z,7.39
2023-02-26T14:02:19.231Z,7.38
2023-02-26T14:04:58.377Z,7.37
2023-02-26T14:07:48.657Z,7.37
2023-02-26T14:10:26.085Z,7.37
2023-02-26T14:13:14.662Z,7.37
2023-02-26T14:16:01.188Z,7.36
2023-02-26T14:18:42.810Z,7.37
2023-02-26T14:21:32.875Z,7.36
2023-02-26T14:24:07.450Z,7.35
2023-02-26T14:26:37.566Z,7.35
2023-02-26T14:29:06.149Z,7.34
2023-02-26T14:31:55.846Z,7.34
2023-02-26T14:34:32.157Z,7.34
2023-02-26T14:37:07.181Z,7.34
2023-02-26T14:39:50.264Z,7.35
2023-02-26T14:42:32.477Z,7.34
2023-02-26T14:45:17.903Z,7.33
2023-02-26T14:47:48.840Z,7.32
2023-02-26T14:50:23.042Z,7.33
2023-02-26T14:53:24.324Z,7.32
2023-02-26T14:56:11.351Z,7.28
2023-02-26T14:59:01.657Z,7.30
2023-02-26T15:01:36.508Z,7.29
2023-02-26T15:04:28.945Z,7.30
2023-02-26T15:07:22.020Z,7.29
2023-02-26T15:10:14.953Z,7.29
2023-02-26T15:12:59.098Z,7.30
2023-02-26T15:15:49.415Z,7.30
2023-02-26T15:18:36.664Z,7.30
2023-02-26T15:21:22.004Z,7.29
2023-02-26T15:23:53.776Z,7.28
2023-02-26T15:26:29.650Z,7.28
2023-02-26T15:29:00.641Z,7.28
2023-02-26T15:31:35.128Z,7.27
2023-02-26T15:34:03.926Z,7.28
2023-02-26T15:36:33.134Z,7.27
2023-02-26T15:39:07.375Z,7.26
2023-02-26T15:41:36.781Z,7.26
2023-02-26T15:44:16.708Z,7.24
2023-02-26T15:47:06.085Z,7.23
2023-02-26T15:49:37.294Z,7.22
2023-02-26T15:52:09.018Z,7.20
2023-02-26T15:55:05.973Z,7.20
2023-02-26T15:57:34.177Z,7.19
2023-02-26T16:00:16.361Z,7.18
2023-02-26T16:02:45.838Z,7.17
2023-02-26T16:05:15.873Z,7.17
2023-02-26T16:08:02.243Z,7.17
2023-02-26T16:10:42.196Z,7.17
2023-02-26T16:13:17.884Z,7.17
2023-02-26T16:15:48.167Z,7.16
2023-02-26T16:18:23.865Z,7.16
2023-02-26T16:20:58.256Z,7.15
2023-02-26T16:23:51.876Z,7.14
2023-02-26T16:26:32.431Z,7.14
2023-02-26T16:29:06.536Z,7.13
2023-02-26T16:31:38.296Z,7.13
2023-02-26T16:34:39.969Z,7.13
2023-02-26T16:37:36.227Z,7.14
2023-02-26T16:40:12.411Z,7.14
2023-02-26T16:43:20.786Z,7.16
2023-02-26T16:45:56.063Z,7.17
2023-02-26T16:48:35.565Z,7.18
2023-02-26T16:51:15.973Z,7.19
2023-02-26T16:53:49.610Z,7.19
2023-02-26T16:56:22.711Z,7.21
2023-02-26T16:59:18.006Z,7.23
2023-02-26T17:02:13.207Z,7.25
2023-02-26T17:04:42.639Z,7.28
2023-02-26T17:07:28.208Z,7.29
2023-02-26T17:10:20.994Z,7.29
2023-02-26T17:13:01.985Z,7.29
2023-02-26T17:15:36.037Z,7.30
2023-02-26T17:18:04.639Z,7.31
2023-02-26T17:20:33.949Z,7.32
2023-02-26T17:23:05.345Z,7.32
2023-02-26T17:25:53.980Z,7.31
2023-02-26T17:28:26.083Z,7.32
2023-02-26T17:31:15.334Z,7.31
2023-02-26T17:33:46.103Z,7.31
2023-02-26T17:36:19.051Z,7.32
2023-02-26T17:38:51.291Z,7.33
2023-02-26T17:41:21.059Z,7.33
2023-02-26T17:43:49.624Z,7.34
2023-02-26T17:46:18.564Z,7.35
2023-02-26T17:48:46.793Z,7.35
2023-02-26T17:51:16.157Z,7.36
2023-02-26T17:53:46.939Z,7.36
2023-02-26T17:56:27.236Z,7.37
2023-02-26T17:58:59.081Z,7.37
2023-02-26T18:01:30.405Z,7.37
2023-02-26T18:04:01.157Z,7.37
2023-02-26T18:06:36.549Z,7.38
2023-02-26T18:09:06.632Z,7.39
2023-02-26T18:11:35.746Z,7.39
2023-02-26T18:14:15.588Z,7.39
2023-02-26T18:16:46.872Z,7.39
2023-02-26T18:19:15.605Z,7.37
2023-02-26T18:21:44.007Z,7.35
2023-02-26T18:24:13.162Z,7.34
2023-02-26T18:26:53.039Z,7.34
2023-02-26T18:29:21.717Z,7.33
2023-02-26T18:31:52.210Z,7.32
2023-02-26T18:34:21.198Z,7.32
2023-02-26T18:36:50.773Z,7.32
2023-02-26T18:39:20.434Z,7.31
2023-02-26T18:41:48.691Z,7.31
2023-02-26T18:44:17.208Z,7.31
2023-02-26T18:46:46.052Z,7.30
2023-02-26T18:49:20.416Z,7.29
2023-02-26T18:51:49.869Z,7.29
2023-02-26T18:54:18.532Z,7.29
2023-02-26T18:56:48.055Z,7.28
2023-02-26T18:59:16.649Z,7.29
2023-02-26T19:01:48.473Z,7.28
2023-02-26T19:04:16.726Z,7.28
2023-02-26T19:06:45.767Z,7.27
2023-02-26T19:09:14.124Z,7.25
2023-02-26T19:11:43.556Z,7.24
2023-02-26T19:14:13.707Z,7.22
2023-02-26T19:16:43.858Z,7.21
2023-02-26T19:19:13.369Z,7.20
2023-02-26T19:21:43.269Z,7.20
2023-02-26T19:24:13.546Z,7.19
2023-02-26T19:26:43.098Z,7.19
2023-02-26T19:29:30.928Z,7.19
2023-02-26T19:31:59.492Z,7.19
2023-02-26T19:34:29.769Z,7.19
2023-02-26T19:36:59.212Z,7.19
2023-02-26T19:39:29.764Z,7.20
2023-02-26T19:41:58.705Z,7.20
2023-02-26T19:44:27.913Z,7.20
2023-02-26T19:46:56.776Z,7.20
2023-02-26T19:49:26.415Z,7.20
2023-02-26T19:51:55.101Z,7.21
2023-02-26T19:54:23.205Z,7.20
2023-02-26T19:56:52.577Z,7.21
2023-02-26T19:59:22.490Z,7.21
2023-02-26T20:01:52.078Z,7.21
2023-02-26T20:04:21.464Z,7.20
2023-02-26T20:06:51.207Z,7.21
2023-02-26T20:09:20.358Z,7.21
2023-02-26T20:11:50.737Z,7.22
2023-02-26T20:14:20.044Z,7.23
2023-02-26T20:16:48.423Z,7.23
2023-02-26T20:19:17.244Z,7.23
2023-02-26T20:21:45.936Z,7.23
2023-02-26T20:24:16.065Z,7.22
2023-02-26T20:26:45.698Z,7.23
2023-02-26T20:29:26.571Z,7.22
2023-02-26T20:31:55.237Z,7.22
2023-02-26T20:34:26.618Z,7.23
2023-02-26T20:36:55.820Z,7.24
2023-02-26T20:39:24.726Z,7.25
2023-02-26T20:41:52.917Z,7.24
2023-02-26T20:44:21.312Z,7.25
2023-02-26T20:46:49.636Z,7.24
2023-02-26T20:49:29.868Z,7.24
2023-02-26T20:51:59.481Z,7.22
2023-02-26T20:54:27.745Z,7.22
2023-02-26T20:56:56.952Z,7.22
2023-02-26T20:59:25.405Z,7.22
2023-02-26T21:01:55.491Z,7.23
2023-02-26T21:04:24.594Z,7.25
2023-02-26T21:06:53.044Z,7.27
2023-02-26T21:09:21.969Z,7.29
2023-02-26T21:11:52.545Z,7.32
2023-02-26T21:14:20.981Z,7.34
2023-02-26T21:16:50.188Z,7.36
2023-02-26T21:19:20.344Z,7.38
2023-02-26T21:21:48.802Z,7.39
2023-02-26T21:24:17.377Z,7.40
2023-02-26T21:26:46.910Z,7.42
2023-02-26T21:29:15.257Z,7.43
2023-02-26T21:31:44.812Z,7.44
2023-02-26T21:34:32.795Z,7.46
2023-02-26T21:37:03.425Z,7.47
2023-02-26T21:39:32.984Z,7.48
2023-02-26T21:42:03.938Z,7.49
2023-02-26T21:44:34.955Z,7.51
2023-02-26T21:47:04.171Z,7.51
2023-02-26T21:49:33.950Z,7.51
2023-02-26T21:52:05.766Z,7.51
2023-02-26T21:54:35.486Z,7.52
2023-02-26T21:57:05.014Z,7.52
2023-02-26T21:59:33.914Z,7.51
2023-02-26T22:02:03.183Z,7.49
2023-02-26T22:04:33.953Z,7.48
2023-02-26T22:07:03.827Z,7.47
2023-02-26T22:09:32.548Z,7.46
2023-02-26T22:12:00.916Z,7.45
2023-02-26T22:14:30.342Z,7.45
2023-02-26T22:16:58.719Z,7.44
2023-02-26T22:19:27.640Z,7.44
2023-02-26T22:21:56.851Z,7.44
2023-02-26T22:24:25.105Z,7.44
2023-02-26T22:26:55.072Z,7.43
2023-02-26T22:29:23.322Z,7.42
2023-02-26T22:31:52.068Z,7.41
2023-02-26T22:34:20.831Z,7.41
2023-02-26T22:36:49.524Z,7.40
2023-02-26T22:39:19.419Z,7.38
2023-02-26T22:41:48.284Z,7.37
2023-02-26T22:44:17.221Z,7.34
2023-02-26T22:46:47.543Z,7.33
2023-02-26T22:49:15.843Z,7.32
2023-02-26T22:51:45.122Z,7.32
2023-02-26T22:54:14.066Z,7.31
2023-02-26T22:56:43.924Z,7.29
2023-02-26T22:59:13.285Z,7.28
2023-02-26T23:01:41.828Z,7.28
2023-02-26T23:04:10.814Z,7.27
2023-02-26T23:06:39.605Z,7.26
2023-02-26T23:09:07.903Z,7.26
2023-02-26T23:11:36.631Z,7.25
2023-02-26T23:14:04.914Z,7.24
2023-02-26T23:16:33.247Z,7.23
2023-02-26T23:19:02.907Z,7.23
2023-02-26T23:21:32.055Z,7.22
2023-02-26T23:24:01.141Z,7.22
2023-02-26T23:26:29.549Z,7.21
2023-02-26T23:28:58.209Z,7.20
2023-02-26T23:31:26.949Z,7.19
2023-02-26T23:33:56.102Z,7.18
2023-02-26T23:36:24.537Z,7.17
2023-02-26T23:38:52.809Z,7.16
2023-02-26T23:41:21.728Z,7.17
2023-02-26T23:43:50.027Z,7.17
2023-02-26T23:46:18.416Z,7.17
2023-02-26T23:48:46.640Z,7.15
2023-02-26T23:51:15.548Z,7.14
2023-02-26T23:53:44.038Z,7.14
2023-02-26T23:56:13.039Z,7.14
2023-02-26T23:58:41.414Z,7.13
